TAF Text Data
IDs:
Format:
Raw Decoded Include METAR

Data at: 1337 UTC 19 Feb 2020

METAR for:KRST (Rochester Intl, MN, US)
Text:KRST 191254Z 30008KT 10SM FEW075 BKN090 OVC120 M19/M23 A3057 RMK AO2 SLP389 T11891228
Temperature:-18.9°C ( -2°F)
Dewpoint:-22.8°C ( -9°F) [RH = 71%]
Pressure (altimeter):30.57 inches Hg (1035.3 mb) [Sea level pressure: 1038.9 mb]
Winds:from the WNW (300 degrees) at 9 MPH (8 knots; 4.1 m/s)
Visibility:10 or more sm (16+ km)
Ceiling:9000 feet AGL
Clouds: few clouds at 7500 feet AGL, broken clouds at 9000 feet AGL, overcast cloud deck at 12000 feet AGL

TAF for:KRST (Rochester Intl, MN, US) issued at 1120 UTC 19 Feb 2020
Text:KRST 191120Z 1912/2012 30009KT P6SM BKN090
Forecast period:1200 UTC 19 February 2020 to 0200 UTC 20 February 2020
Forecast type:FROM: standard forecast or significant change
Winds:from the WNW (300 degrees) at 10 MPH (9 knots; 4.6 m/s)
Visibility:6 or more sm (10+ km)
Ceiling:9000 feet AGL
Clouds: broken clouds at 9000 feet AGL
Text:FM200200 30006KT P6SM SKC
Forecast period:0200 to 1200 UTC 20 February 2020
Forecast type:FROM: standard forecast or significant change
Winds:from the WNW (300 degrees) at 7 MPH (6 knots; 3.1 m/s)
Visibility:6 or more sm (10+ km)
Ceiling:at least 12,000 feet AGL
Clouds:clear skies